Suances, Spain
Current Conditions -  °F | °C
As of 11:00 AM on Thursday 29 Jan 2015 (Local Time) from LEXJ Reporting Station
Broken Clouds Broken Clouds  
Wind Chill: 52°   Ceiling: 6000
Heat Index: 52°   Visibility: 6mi
Dew Point: 36°   Wind: 10mph
Humidity: 54%   Direction: 220°SW
Pressure: 29.83"   Gusts: NA
Location:  43.43°N, 4.04°W
Report Text: LEXJ 291000Z 22009KT 9999 BKN060 11/02 Q1010
Loading
Personal Weather Stations






























Interactive Weather Map New forecast layout! Learn more

10-Day Weather Forecast

Advertisements
Track Severe Weather on mobile